»·PEaware :: SWA9 KTUL-KDAL

SWA9 :: KTUL-KDAL

FLIGHT INFORMATION

Flight Status: Arrived
Operator:
Southwest Airlines
More flights by this operator :: More flights under this callsign
Pilot: Lorenzo C. (29758)
Aircraft: BOEING 737-700
(B737)
More flights by this aircraft type
Origin: KTUL Tulsa Intl
United States
Destination: KDAL Dallas Love
United States
More flights between these airports :: More routes between these airports
Route: PEJAY AXXEE HIBIL3
File this flight plan on PilotEdge
Remarks: RMK / SIMBRIEF
Altitude:
(Current/Filed)
34,000ft
Speed:
(Current/Filed)
462kts
Departed: 25-May-20 05:03 PM
Arrived: 25-May-20 05:48 PM
Distance/Time
Traveled:
207nm/0:45
Distance/Time
To Go:
Arrived

Flight Plot

Page will automatically refresh every two minutes.

Flight plan parsing failed; only flown route is shown


Map Options




Map Legend


Flown Route
Filed Route
Departure Airport
Arrival Airport
Navaid (VOR, NDB)
Fix

Horizontal Profiles

Position Reports

Time Latitude Longitude Heading Altitude Ground
Speed
25-May-20 16:35 36.191075 -95.886237 275 651ft 0kts
25-May-20 16:36 36.191075 -95.886237 275 651ft 0kts
25-May-20 16:37 36.191075 -95.886237 275 651ft 0kts
25-May-20 16:38 36.191075 -95.886237 275 651ft 0kts
25-May-20 16:39 36.191075 -95.886237 275 651ft 0kts
25-May-20 16:40 36.191075 -95.886237 275 651ft 0kts
25-May-20 16:41 36.191075 -95.886237 275 651ft 0kts
25-May-20 16:42 36.191075 -95.886237 275 651ft 0kts
25-May-20 16:43 36.191075 -95.886237 275 651ft 0kts
25-May-20 16:44 36.191075 -95.886237 275 651ft 0kts
25-May-20 16:45 36.191075 -95.886237 275 651ft 0kts
25-May-20 16:46 36.191075 -95.886237 275 651ft 0kts
25-May-20 16:47 36.191075 -95.886237 275 651ft 0kts
25-May-20 16:48 36.191075 -95.886237 275 651ft 0kts
25-May-20 16:49 36.191075 -95.886237 275 651ft 0kts
25-May-20 16:50 36.191075 -95.886237 275 651ft 0kts
25-May-20 16:51 36.191075 -95.886237 275 651ft 0kts
25-May-20 16:52 36.191075 -95.886237 275 651ft 0kts
25-May-20 16:53 36.191075 -95.886237 275 651ft 0kts
25-May-20 16:54 36.191075 -95.886237 275 651ft 0kts
25-May-20 16:55 36.191035 -95.885755 275 650ft 2kts
25-May-20 16:56 36.190752 -95.885147 335 650ft 2kts
25-May-20 16:57 36.190249 -95.885204 37 650ft 1kts
25-May-20 16:58 36.190209 -95.885245 38 650ft 0kts
25-May-20 16:59 36.190209 -95.885245 38 650ft 0kts
25-May-20 17:00 36.191068 -95.884392 39 649ft 11kts
25-May-20 17:01 36.193259 -95.882707 5 647ft 2kts
25-May-20 17:02 36.194440 -95.882610 2 647ft 47kts
25-May-20 17:03 36.234986 -95.879683 0 2238ft 182kts
25-May-20 17:04 36.274213 -95.837970 91 4352ft 263kts
25-May-20 17:05 36.238468 -95.757621 140 7877ft 280kts
25-May-20 17:06 36.170676 -95.717414 170 12212ft 277kts
25-May-20 17:07 36.090219 -95.706166 171 15005ft 303kts
25-May-20 17:08 36.004278 -95.694337 171 17712ft 320kts
25-May-20 17:09 35.913565 -95.681909 171 20145ft 336kts
25-May-20 17:10 35.818942 -95.669003 171 22345ft 353kts
25-May-20 17:11 35.719605 -95.655525 171 24511ft 367kts
25-May-20 17:12 35.616760 -95.648710 186 26685ft 383kts
25-May-20 17:13 35.510356 -95.672105 185 28640ft 394kts
25-May-20 17:14 35.400727 -95.691650 185 30439ft 405kts
25-May-20 17:15 35.289309 -95.711556 185 32510ft 403kts
25-May-20 17:16 35.180700 -95.730890 184 33850ft 399kts
25-May-20 17:17 35.071938 -95.750197 184 33867ft 394kts
25-May-20 17:18 34.963683 -95.769363 184 33865ft 395kts
25-May-20 17:19 34.855518 -95.788467 184 33873ft 395kts
25-May-20 17:20 34.747209 -95.807545 184 33860ft 394kts
25-May-20 17:21 34.638728 -95.826601 184 33854ft 394kts
25-May-20 17:22 34.531605 -95.845368 184 33853ft 393kts
25-May-20 17:23 34.421748 -95.864536 184 33857ft 406kts
25-May-20 17:24 34.309414 -95.887179 192 33360ft 419kts
25-May-20 17:25 34.199729 -95.934280 195 30292ft 420kts
25-May-20 17:26 34.090383 -95.981185 196 27193ft 412kts
25-May-20 17:27 33.984342 -96.026544 198 24293ft 400kts
25-May-20 17:28 33.882183 -96.070209 200 22042ft 373kts
25-May-20 17:29 33.787975 -96.113437 201 19560ft 363kts
25-May-20 17:30 33.693428 -96.156554 202 17291ft 348kts
25-May-20 17:31 33.604704 -96.196944 203 15270ft 343kts
25-May-20 17:32 33.515613 -96.232203 199 13204ft 331kts
25-May-20 17:33 33.429144 -96.264750 201 11255ft 320kts
25-May-20 17:34 33.349753 -96.298012 201 10334ft 284kts
25-May-20 17:35 33.277600 -96.329837 213 9393ft 280kts
25-May-20 17:36 33.224091 -96.394079 234 9001ft 273kts
25-May-20 17:37 33.177690 -96.465454 235 8999ft 272kts
25-May-20 17:38 33.134261 -96.539388 237 8999ft 271kts
25-May-20 17:39 33.091142 -96.612766 238 7951ft 270kts
25-May-20 17:40 33.041538 -96.675318 189 6648ft 271kts
25-May-20 17:41 32.967307 -96.675346 187 5633ft 258kts
25-May-20 17:42 32.900138 -96.685413 191 5087ft 230kts
25-May-20 17:43 32.839106 -96.699838 207 4261ft 205kts
25-May-20 17:44 32.797273 -96.742515 240 2785ft 188kts
25-May-20 17:45 32.796090 -96.793396 301 1629ft 153kts
25-May-20 17:46 32.822824 -96.830417 315 829ft 142kts
25-May-20 17:47 32.844421 -96.855431 315 475ft 16kts
25-May-20 17:48 32.847393 -96.856575 76 475ft 9kts
25-May-20 17:49 32.846128 -96.854189 92 476ft 10kts
25-May-20 17:50 32.847548 -96.852546 103 478ft 6kts
25-May-20 17:51 32.846988 -96.851375 178 480ft 4kts
25-May-20 17:52 32.846499 -96.851371 180 479ft 0kts
25-May-20 17:53 32.846499 -96.851371 180 479ft 0kts
25-May-20 17:54 32.846499 -96.851371 180 479ft 0kts
25-May-20 17:55 32.846499 -96.851371 180 479ft 0kts
25-May-20 17:56 32.833154 -96.842426 316 541ft 138kts
25-May-20 17:57 32.839737 -96.850034 315 475ft 107kts
25-May-20 17:58 32.840898 -96.851364 316 475ft 94kts
25-May-20 17:59 32.829842 -96.838627 316 631ft 141kts

Navigation Log

Ident Type
Flight plan parsing failed, navigation log unavailable